Time;durP1;ratioP1;P1;durP2;ratioP2;P2;SDS_P1;SDS_P2;PMS_P1;PMS_P2;Temp;Humidity;BMP_temperature;BMP_pressure;BME280_temperature;BME280_humidity;BME280_pressure;Samples;Min_cycle;Max_cycle;Signal;HPM_P1;HPM_P2
2023/08/25 00:00:19;;;;;;;16.67;15.00;;;;;;;;;;5031995;28;20206;-82
2023/08/25 00:02:46;;;;;;;15.30;13.25;;;;;;;;;;5031964;28;20207;-82
2023/08/25 00:05:13;;;;;;;17.35;15.55;;;;;;;;;;5031839;28;20280;-82
2023/08/25 00:07:40;;;;;;;17.15;15.38;;;;;;;;;;5032360;28;20218;-82
2023/08/25 00:10:09;;;;;;;16.48;14.55;;;;;;;;;;5031555;28;20203;-83
2023/08/25 00:12:36;;;;;;;16.65;14.95;;;;;;;;;;5032085;28;20721;-82
2023/08/25 00:15:04;;;;;;;18.20;16.15;;;;;;;;;;5031631;28;20276;-85
2023/08/25 00:17:32;;;;;;;19.35;15.93;;;;;;;;;;5031489;28;20233;-83
2023/08/25 00:19:59;;;;;;;17.45;15.77;;;;;;;;;;5032207;28;20203;-82
2023/08/25 00:22:27;;;;;;;16.63;14.77;;;;;;;;;;5031535;28;20235;-83
2023/08/25 00:24:55;;;;;;;16.77;15.18;;;;;;;;;;5031670;28;20206;-83
2023/08/25 00:27:24;;;;;;;17.02;15.32;;;;;;;;;;5031101;28;20659;-82
2023/08/25 00:29:53;;;;;;;14.95;13.55;;;;;;;;;;5031948;28;20210;-82
2023/08/25 00:32:20;;;;;;;14.77;13.38;;;;;;;;;;5031571;28;20277;-82
2023/08/25 00:34:47;;;;;;;15.15;13.60;;;;;;;;;;5031891;28;20207;-82
2023/08/25 00:37:14;;;;;;;15.88;14.40;;;;;;;;;;5031116;28;20226;-82
2023/08/25 00:39:41;;;;;;;15.55;14.15;;;;;;;;;;5031861;28;20206;-83
2023/08/25 00:42:08;;;;;;;15.63;14.25;;;;;;;;;;5031206;28;20241;-82
2023/08/25 00:44:37;;;;;;;16.52;14.82;;;;;;;;;;5032031;28;20210;-83
2023/08/25 00:47:04;;;;;;;13.93;12.63;;;;;;;;;;5030633;28;20226;-82
2023/08/25 00:49:31;;;;;;;15.48;12.15;;;;;;;;;;5031790;28;20206;-83
2023/08/25 00:51:59;;;;;;;13.50;12.20;;;;;;;;;;5031254;28;20645;-83
2023/08/25 00:54:27;;;;;;;13.60;12.30;;;;;;;;;;5031777;28;20210;-83
2023/08/25 00:56:54;;;;;;;14.55;13.15;;;;;;;;;;5031043;28;20238;-83
2023/08/25 00:59:22;;;;;;;15.38;13.88;;;;;;;;;;5031517;28;20574;-83
2023/08/25 01:01:50;;;;;;;14.88;13.43;;;;;;;;;;5030752;28;20285;-83
2023/08/25 01:04:17;;;;;;;15.13;13.70;;;;;;;;;;5031470;28;20242;-82
2023/08/25 01:06:44;;;;;;;16.83;13.45;;;;;;;;;;5030666;28;20267;-83
2023/08/25 01:09:12;;;;;;;13.02;11.45;;;;;;;;;;5028483;28;20245;-83
2023/08/25 01:11:44;;;;;;;15.88;14.27;;;;;;;;;;5030860;28;20242;-83
2023/08/25 01:14:13;;;;;;;15.25;13.75;;;;;;;;;;5032729;28;20199;-83
2023/08/25 01:16:45;;;;;;;16.27;14.68;;;;;;;;;;5034444;28;20238;-83
2023/08/25 01:19:23;;;;;;;15.95;14.43;;;;;;;;;;5018911;28;20248;-84
2023/08/25 01:21:53;;;;;;;18.02;16.23;;;;;;;;;;5034695;28;20234;-83
2023/08/25 01:24:23;;;;;;;18.75;16.75;;;;;;;;;;5035178;28;20221;-82
2023/08/25 01:26:52;;;;;;;21.83;17.75;;;;;;;;;;5034285;28;20734;-83
2023/08/25 01:29:19;;;;;;;21.75;17.17;;;;;;;;;;5035287;28;20210;-83
2023/08/25 01:31:46;;;;;;;20.08;17.73;;;;;;;;;;5034772;28;20329;-83
2023/08/25 01:34:15;;;;;;;20.80;18.17;;;;;;;;;;5034534;28;20206;-84
2023/08/25 01:36:47;;;;;;;23.52;20.00;;;;;;;;;;5033549;28;20312;-84
2023/08/25 01:39:16;;;;;;;26.55;20.38;;;;;;;;;;5034264;28;20210;-83
2023/08/25 01:41:44;;;;;;;22.25;19.35;;;;;;;;;;5034368;28;20238;-83
2023/08/25 01:44:14;;;;;;;28.75;21.00;;;;;;;;;;5034802;28;20295;-83
2023/08/25 01:46:43;;;;;;;24.70;20.50;;;;;;;;;;5034194;28;20238;-83
2023/08/25 01:49:10;;;;;;;28.70;22.02;;;;;;;;;;5034797;28;20207;-83
2023/08/25 01:51:38;;;;;;;27.10;20.25;;;;;;;;;;5034435;28;20607;-83
2023/08/25 01:54:05;;;;;;;23.27;17.40;;;;;;;;;;5034783;28;20672;-83
2023/08/25 01:56:32;;;;;;;22.08;17.95;;;;;;;;;;5033913;28;20235;-83
2023/08/25 01:58:59;;;;;;;28.10;21.02;;;;;;;;;;5034864;28;20206;-83
2023/08/25 02:01:30;;;;;;;21.48;19.08;;;;;;;;;;5034214;28;20704;-83
2023/08/25 02:03:57;;;;;;;23.38;18.55;;;;;;;;;;5034806;28;20187;-83
2023/08/25 02:06:25;;;;;;;20.98;17.83;;;;;;;;;;5034028;28;20238;-83
2023/08/25 02:08:52;;;;;;;19.92;17.80;;;;;;;;;;5034136;28;20210;-83
2023/08/25 02:11:19;;;;;;;20.17;18.00;;;;;;;;;;5034029;28;20238;-84
2023/08/25 02:13:46;;;;;;;21.63;18.33;;;;;;;;;;5034524;28;20210;-83
2023/08/25 02:16:13;;;;;;;23.40;20.48;;;;;;;;;;5013944;28;20239;-83
2023/08/25 02:18:41;;;;;;;21.33;19.13;;;;;;;;;;5014933;28;20226;-84
2023/08/25 02:21:08;;;;;;;21.83;19.63;;;;;;;;;;5014039;28;20313;-83
2023/08/25 02:23:36;;;;;;;23.23;20.00;;;;;;;;;;5020209;28;20211;-83
2023/08/25 02:26:03;;;;;;;22.08;19.67;;;;;;;;;;5033420;28;20241;-83
2023/08/25 02:28:30;;;;;;;24.00;20.48;;;;;;;;;;5034227;28;20202;-83
2023/08/25 02:30:57;;;;;;;26.13;20.98;;;;;;;;;;5033689;28;20242;-83
2023/08/25 02:33:24;;;;;;;22.55;20.02;;;;;;;;;;5034195;28;20222;-84
2023/08/25 02:35:52;;;;;;;35.97;24.33;;;;;;;;;;5033245;28;20245;-84
2023/08/25 02:38:19;;;;;;;34.10;23.15;;;;;;;;;;5033748;28;20222;-83
2023/08/25 02:40:47;;;;;;;28.70;24.70;;;;;;;;;;5033509;28;20245;-84
2023/08/25 02:43:14;;;;;;;30.25;24.25;;;;;;;;;;5033997;28;20214;-84
2023/08/25 02:45:43;;;;;;;26.40;22.83;;;;;;;;;;5044443;23;20250;-89
2023/08/25 02:48:10;;;;;;;28.92;23.83;;;;;;;;;;4987093;28;20204;-88
2023/08/25 02:50:37;;;;;;;26.95;22.85;;;;;;;;;;4992099;28;20239;-88
2023/08/25 02:53:06;;;;;;;28.38;23.73;;;;;;;;;;4981355;28;20576;-90
2023/08/25 02:55:33;;;;;;;28.77;23.23;;;;;;;;;;4992840;28;20232;-89
2023/08/25 02:58:00;;;;;;;25.70;22.77;;;;;;;;;;4994603;28;20232;-89
2023/08/25 03:00:27;;;;;;;29.38;22.48;;;;;;;;;;4994906;28;20236;-89
2023/08/25 03:02:54;;;;;;;26.45;22.55;;;;;;;;;;4995065;28;20686;-89
2023/08/25 03:05:22;;;;;;;26.73;22.67;;;;;;;;;;4994441;28;20227;-88
2023/08/25 03:07:51;;;;;;;24.83;21.20;;;;;;;;;;4995122;28;20267;-88
2023/08/25 03:10:20;;;;;;;26.27;22.23;;;;;;;;;;5004972;28;20210;-88
2023/08/25 03:12:47;;;;;;;23.55;21.05;;;;;;;;;;5014821;28;20215;-89
2023/08/25 03:15:14;;;;;;;24.08;21.52;;;;;;;;;;5013500;28;20203;-88
2023/08/25 03:17:42;;;;;;;22.83;20.30;;;;;;;;;;5013937;28;20234;-89
2023/08/25 03:20:09;;;;;;;22.17;19.67;;;;;;;;;;5013636;28;20203;-88
2023/08/25 03:22:36;;;;;;;24.20;21.60;;;;;;;;;;5013811;28;20199;-89
2023/08/25 03:25:03;;;;;;;25.45;21.63;;;;;;;;;;5013745;28;20213;-88
2023/08/25 03:27:34;;;;;;;23.90;21.30;;;;;;;;;;5013720;28;20206;-88
2023/08/25 03:30:01;;;;;;;23.45;21.05;;;;;;;;;;5014473;28;20207;-89
2023/08/25 03:32:28;;;;;;;32.60;20.77;;;;;;;;;;5014032;28;20310;-88
2023/08/25 03:34:55;;;;;;;21.88;18.95;;;;;;;;;;5013847;28;20207;-89
2023/08/25 03:37:22;;;;;;;22.58;20.20;;;;;;;;;;5012766;28;20231;-89
2023/08/25 03:39:49;;;;;;;22.52;19.77;;;;;;;;;;5014418;28;20204;-91
2023/08/25 03:42:17;;;;;;;26.00;20.85;;;;;;;;;;5013590;28;20246;-88
2023/08/25 03:44:47;;;;;;;29.70;20.88;;;;;;;;;;5014042;28;20204;-89
2023/08/25 03:47:14;;;;;;;23.88;19.48;;;;;;;;;;5012875;28;20235;-89
2023/08/25 03:49:41;;;;;;;21.10;19.00;;;;;;;;;;5013589;28;20210;-89
2023/08/25 03:52:08;;;;;;;21.15;19.15;;;;;;;;;;5013210;28;20245;-88
2023/08/25 03:54:35;;;;;;;19.70;17.90;;;;;;;;;;5014179;28;20234;-89
2023/08/25 03:57:04;;;;;;;20.55;18.55;;;;;;;;;;5012822;28;20286;-89
2023/08/25 03:59:31;;;;;;;20.70;18.60;;;;;;;;;;5012460;28;20731;-84
2023/08/25 04:02:01;;;;;;;20.40;17.88;;;;;;;;;;5011952;28;20235;-84
2023/08/25 04:04:28;;;;;;;19.27;17.38;;;;;;;;;;5012744;28;20298;-84
2023/08/25 04:06:55;;;;;;;22.27;18.65;;;;;;;;;;5011928;28;20323;-84
2023/08/25 04:09:22;;;;;;;19.80;17.80;;;;;;;;;;5012382;28;20642;-84
2023/08/25 04:11:49;;;;;;;21.70;17.88;;;;;;;;;;5011562;28;20235;-86
2023/08/25 04:14:16;;;;;;;28.63;19.33;;;;;;;;;;5011846;28;20214;-87
2023/08/25 04:16:43;;;;;;;17.88;15.95;;;;;;;;;;5011762;28;20247;-87
2023/08/25 04:19:13;;;;;;;19.50;17.58;;;;;;;;;;5012572;28;20214;-85
2023/08/25 04:21:41;;;;;;;18.60;16.75;;;;;;;;;;5011655;28;20318;-87
2023/08/25 04:24:08;;;;;;;18.92;17.02;;;;;;;;;;5012335;28;20232;-87
2023/08/25 04:26:35;;;;;;;17.13;15.52;;;;;;;;;;5007556;28;20250;-86
2023/08/25 04:29:02;;;;;;;16.33;14.75;;;;;;;;;;5012359;28;20211;-86
2023/08/25 04:31:29;;;;;;;20.10;16.88;;;;;;;;;;5013455;28;20733;-86
2023/08/25 04:33:56;;;;;;;18.55;16.83;;;;;;;;;;5031654;28;20222;-87
2023/08/25 04:36:24;;;;;;;17.05;15.45;;;;;;;;;;5031242;28;20253;-87
2023/08/25 04:38:51;;;;;;;15.60;14.20;;;;;;;;;;5027274;28;20561;-84
2023/08/25 04:41:18;;;;;;;17.13;15.32;;;;;;;;;;5011382;28;20238;-84
2023/08/25 04:43:46;;;;;;;15.75;14.15;;;;;;;;;;5012161;28;20203;-85
2023/08/25 04:46:13;;;;;;;15.82;14.43;;;;;;;;;;5011373;28;20243;-85
2023/08/25 04:48:43;;;;;;;17.45;15.75;;;;;;;;;;5014160;28;20203;-85
2023/08/25 04:51:10;;;;;;;17.38;15.68;;;;;;;;;;5014429;28;20235;-86
2023/08/25 04:53:38;;;;;;;19.13;16.58;;;;;;;;;;5016197;28;20218;-85
2023/08/25 04:56:05;;;;;;;18.65;16.90;;;;;;;;;;5015644;28;20243;-85
2023/08/25 04:58:32;;;;;;;19.70;17.85;;;;;;;;;;5015959;28;20257;-85
2023/08/25 05:00:59;;;;;;;19.92;17.92;;;;;;;;;;5015324;28;20234;-86
2023/08/25 05:03:26;;;;;;;20.35;18.25;;;;;;;;;;5015078;28;20207;-85
2023/08/25 05:05:53;;;;;;;21.08;18.83;;;;;;;;;;5014892;28;20250;-85
2023/08/25 05:08:21;;;;;;;20.70;18.70;;;;;;;;;;5015201;28;20207;-86
2023/08/25 05:10:49;;;;;;;19.23;17.30;;;;;;;;;;5015175;28;20303;-86
2023/08/25 05:13:16;;;;;;;16.90;15.23;;;;;;;;;;5016021;28;20210;-86
2023/08/25 05:15:43;;;;;;;15.48;13.95;;;;;;;;;;5015178;28;20246;-86
2023/08/25 05:18:10;;;;;;;16.38;14.77;;;;;;;;;;5015605;28;20258;-85
2023/08/25 05:20:37;;;;;;;17.02;15.32;;;;;;;;;;5014895;28;20246;-85
2023/08/25 05:23:05;;;;;;;16.85;15.18;;;;;;;;;;5015693;28;20188;-86
2023/08/25 05:25:32;;;;;;;14.48;12.98;;;;;;;;;;5015028;28;20238;-85
2023/08/25 05:28:00;;;;;;;13.73;12.38;;;;;;;;;;5011220;28;20235;-85
2023/08/25 05:30:27;;;;;;;13.90;12.60;;;;;;;;;;5014907;28;20237;-85
2023/08/25 05:32:54;;;;;;;14.88;13.30;;;;;;;;;;5015362;28;20207;-87
2023/08/25 05:35:21;;;;;;;17.35;15.65;;;;;;;;;;5015018;28;20227;-87
2023/08/25 05:37:50;;;;;;;16.55;14.85;;;;;;;;;;5015527;28;20626;-85
2023/08/25 05:40:17;;;;;;;18.60;16.70;;;;;;;;;;5014842;28;20246;-84
2023/08/25 05:42:44;;;;;;;18.23;16.42;;;;;;;;;;5015269;28;20214;-85
2023/08/25 05:45:13;;;;;;;18.08;16.27;;;;;;;;;;5014590;28;20234;-86
2023/08/25 05:47:40;;;;;;;16.98;15.32;;;;;;;;;;5015231;28;20188;-85
2023/08/25 05:50:07;;;;;;;17.73;15.88;;;;;;;;;;5014526;28;20258;-85
2023/08/25 05:52:34;;;;;;;19.42;17.45;;;;;;;;;;5015023;28;20203;-85
2023/08/25 05:55:01;;;;;;;20.88;18.55;;;;;;;;;;5014883;28;20207;-85
2023/08/25 05:57:28;;;;;;;21.50;19.25;;;;;;;;;;5014473;28;20695;-85
2023/08/25 05:59:56;;;;;;;22.77;19.70;;;;;;;;;;5013748;28;20207;-85
2023/08/25 06:02:24;;;;;;;25.08;18.65;;;;;;;;;;5014419;28;20242;-85
2023/08/25 06:04:51;;;;;;;20.67;18.48;;;;;;;;;;5014978;28;20207;-85
2023/08/25 06:07:18;;;;;;;20.45;16.20;;;;;;;;;;5014076;28;20243;-85
2023/08/25 06:09:45;;;;;;;13.60;10.88;;;;;;;;;;5014373;28;20219;-85
2023/08/25 06:12:12;;;;;;;11.00;9.77;;;;;;;;;;5013996;28;20231;-87
2023/08/25 06:14:39;;;;;;;7.78;7.07;;;;;;;;;;5014625;28;20219;-86
2023/08/25 06:17:06;;;;;;;8.60;7.45;;;;;;;;;;5013762;28;20242;-87
2023/08/25 06:19:36;;;;;;;9.68;7.65;;;;;;;;;;5014739;28;20219;-88
2023/08/25 06:22:03;;;;;;;10.65;6.68;;;;;;;;;;5015252;28;20238;-88
2023/08/25 06:24:30;;;;;;;8.95;7.63;;;;;;;;;;5016001;28;20218;-88
2023/08/25 06:26:58;;;;;;;9.25;7.00;;;;;;;;;;5012124;28;20239;-88
2023/08/25 06:29:25;;;;;;;7.35;6.65;;;;;;;;;;5015791;28;20608;-88
2023/08/25 06:31:52;;;;;;;7.68;6.20;;;;;;;;;;5014917;28;20239;-87
2023/08/25 06:34:19;;;;;;;6.13;5.57;;;;;;;;;;5015072;28;20204;-87
2023/08/25 06:36:47;;;;;;;8.00;7.20;;;;;;;;;;5015085;28;20239;-89
2023/08/25 06:39:14;;;;;;;11.80;7.80;;;;;;;;;;5017038;28;20242;-89
2023/08/25 06:41:41;;;;;;;12.13;8.48;;;;;;;;;;5014399;28;20239;-89
2023/08/25 06:44:09;;;;;;;10.85;7.88;;;;;;;;;;5015555;28;20207;-88
2023/08/25 06:46:36;;;;;;;11.10;8.20;;;;;;;;;;5014626;28;20370;-88
2023/08/25 06:49:03;;;;;;;11.20;8.98;;;;;;;;;;5014641;28;20569;-87
2023/08/25 06:51:30;;;;;;;11.65;8.55;;;;;;;;;;5014311;28;20231;-87
2023/08/25 06:54:01;;;;;;;10.20;8.95;;;;;;;;;;5014435;28;20583;-87
2023/08/25 06:56:28;;;;;;;10.85;9.75;;;;;;;;;;5013505;28;20772;-87
2023/08/25 06:58:55;;;;;;;10.18;9.07;;;;;;;;;;5013883;28;20286;-87
2023/08/25 07:01:22;;;;;;;12.07;9.27;;;;;;;;;;5013471;28;20231;-86
2023/08/25 07:03:49;;;;;;;11.65;10.10;;;;;;;;;;5013829;28;20203;-86
2023/08/25 07:06:16;;;;;;;11.90;9.60;;;;;;;;;;5013222;28;20239;-87
2023/08/25 07:08:43;;;;;;;9.85;8.85;;;;;;;;;;5014007;28;20210;-89
2023/08/25 07:14:15;;;;;;;10.48;7.05;;;;;;;;;;5008532;28;20194;-86
2023/08/25 07:16:42;;;;;;;9.10;7.55;;;;;;;;;;5012148;28;20732;-86
2023/08/25 07:19:09;;;;;;;7.10;4.72;;;;;;;;;;5013122;28;20230;-85
2023/08/25 07:21:36;;;;;;;8.35;5.30;;;;;;;;;;5012975;28;20234;-86
2023/08/25 07:24:04;;;;;;;5.65;5.05;;;;;;;;;;5012708;28;20199;-86
2023/08/25 07:26:31;;;;;;;6.70;4.90;;;;;;;;;;5012007;28;20227;-86
2023/08/25 07:28:58;;;;;;;8.40;5.47;;;;;;;;;;5012533;28;20680;-85
2023/08/25 07:31:26;;;;;;;8.52;5.85;;;;;;;;;;5012097;28;20238;-86
2023/08/25 07:33:53;;;;;;;7.28;6.32;;;;;;;;;;5017657;28;20210;-85
2023/08/25 07:36:20;;;;;;;8.40;5.95;;;;;;;;;;5012077;28;20238;-85
2023/08/25 07:38:47;;;;;;;10.82;6.93;;;;;;;;;;5022165;28;20223;-85
2023/08/25 07:41:20;;;;;;;8.60;7.35;;;;;;;;;;5019002;28;20285;-85
2023/08/25 07:43:47;;;;;;;7.88;7.13;;;;;;;;;;5009035;28;20230;-85
2023/08/25 07:46:14;;;;;;;10.27;7.68;;;;;;;;;;5011489;28;20629;-85
2023/08/25 07:48:42;;;;;;;8.95;8.05;;;;;;;;;;5003985;28;20662;-85
2023/08/25 07:51:09;;;;;;;10.82;7.75;;;;;;;;;;5011862;28;20721;-85
2023/08/25 07:53:36;;;;;;;11.38;8.52;;;;;;;;;;5020204;28;20673;-85
2023/08/25 07:56:04;;;;;;;11.20;9.65;;;;;;;;;;5011614;28;20238;-85
2023/08/25 07:58:31;;;;;;;11.23;9.30;;;;;;;;;;5011973;28;20223;-85
2023/08/25 08:00:58;;;;;;;10.85;9.70;;;;;;;;;;5011750;28;20758;-85
2023/08/25 08:03:25;;;;;;;13.07;10.57;;;;;;;;;;5011955;28;20687;-85
2023/08/25 08:05:53;;;;;;;11.48;9.93;;;;;;;;;;5012999;28;20624;-84
2023/08/25 08:08:20;;;;;;;10.52;9.45;;;;;;;;;;5020746;28;20661;-85
2023/08/25 08:10:48;;;;;;;12.63;9.73;;;;;;;;;;5012305;28;20608;-85
2023/08/25 08:13:15;;;;;;;11.32;10.15;;;;;;;;;;5023375;28;20256;-85
2023/08/25 08:15:42;;;;;;;15.68;11.10;;;;;;;;;;5014391;28;20235;-85
2023/08/25 08:18:09;;;;;;;13.00;10.95;;;;;;;;;;5003849;28;20242;-85
2023/08/25 08:20:36;;;;;;;9.68;7.70;;;;;;;;;;5011692;28;20383;-85
2023/08/25 08:23:05;;;;;;;10.98;9.73;;;;;;;;;;5014410;28;20202;-84
2023/08/25 08:25:35;;;;;;;6.32;4.53;;;;;;;;;;5016494;28;20247;-85
2023/08/25 08:28:02;;;;;;;7.47;3.75;;;;;;;;;;5011577;28;20210;-85
2023/08/25 08:30:29;;;;;;;5.88;3.40;;;;;;;;;;5017532;28;20597;-85
2023/08/25 08:33:11;;;;;;;5.82;3.83;;;;;;;;;;5024085;28;20212;-84
2023/08/25 08:35:38;;;;;;;4.25;3.53;;;;;;;;;;5022925;28;20292;-86
2023/08/25 08:38:07;;;;;;;10.48;4.05;;;;;;;;;;5011462;28;20214;-85
2023/08/25 08:40:34;;;;;;;6.13;4.05;;;;;;;;;;5011272;28;20319;-85
2023/08/25 08:43:03;;;;;;;5.53;4.28;;;;;;;;;;5011791;28;20222;-84
2023/08/25 08:45:33;;;;;;;4.55;3.67;;;;;;;;;;5011042;28;20257;-85
2023/08/25 08:48:02;;;;;;;4.82;3.50;;;;;;;;;;5010950;28;20218;-84
2023/08/25 08:50:29;;;;;;;5.00;3.97;;;;;;;;;;5012457;28;20293;-84
2023/08/25 08:52:57;;;;;;;4.22;3.75;;;;;;;;;;5030802;28;20676;-84
2023/08/25 08:55:26;;;;;;;5.32;3.95;;;;;;;;;;5017773;28;20235;-82
2023/08/25 08:57:53;;;;;;;5.90;3.90;;;;;;;;;;5012970;28;20242;-86
2023/08/25 09:00:21;;;;;;;4.63;3.60;;;;;;;;;;5017541;28;20228;-85
2023/08/25 09:02:51;;;;;;;3.80;3.00;;;;;;;;;;5012235;28;20225;-84
2023/08/25 09:05:22;;;;;;;3.10;2.72;;;;;;;;;;5017742;28;20211;-84
2023/08/25 09:07:50;;;;;;;4.05;2.65;;;;;;;;;;5011236;28;20207;-85
2023/08/25 09:10:17;;;;;;;2.80;2.60;;;;;;;;;;5023412;28;20207;-83
2023/08/25 09:12:45;;;;;;;2.97;2.53;;;;;;;;;;5023222;28;20232;-84
2023/08/25 09:15:24;;;;;;;2.42;2.22;;;;;;;;;;5014198;28;20218;-85
2023/08/25 09:17:54;;;;;;;2.53;1.77;;;;;;;;;;5011964;28;20203;-86
2023/08/25 09:20:22;;;;;;;2.00;1.80;;;;;;;;;;5019414;28;20219;-84
2023/08/25 09:22:55;;;;;;;3.33;1.92;;;;;;;;;;5022012;28;20285;-85
2023/08/25 09:25:22;;;;;;;2.38;1.83;;;;;;;;;;5012979;28;20367;-85
2023/08/25 09:27:54;;;;;;;4.18;1.90;;;;;;;;;;5020022;28;20203;-86
2023/08/25 09:30:22;;;;;;;2.03;1.67;;;;;;;;;;5025458;28;20731;-85
2023/08/25 09:32:49;;;;;;;2.58;2.00;;;;;;;;;;5011316;28;20203;-85
2023/08/25 09:35:21;;;;;;;2.38;1.77;;;;;;;;;;5013218;28;20218;-85
2023/08/25 09:37:48;;;;;;;1.42;1.35;;;;;;;;;;5015235;28;20207;-85
2023/08/25 09:40:16;;;;;;;1.98;1.88;;;;;;;;;;5030006;28;20235;-85
2023/08/25 09:42:43;;;;;;;2.22;1.77;;;;;;;;;;5022396;28;20214;-86
2023/08/25 09:45:12;;;;;;;3.30;1.98;;;;;;;;;;5022040;28;20670;-88
2023/08/25 09:47:41;;;;;;;1.80;1.65;;;;;;;;;;5014624;28;20261;-86
2023/08/25 09:50:08;;;;;;;2.15;1.80;;;;;;;;;;5014252;28;20545;-87
2023/08/25 09:52:36;;;;;;;3.47;2.67;;;;;;;;;;5014402;28;20210;-86
2023/08/25 09:55:03;;;;;;;5.45;2.10;;;;;;;;;;5013744;28;20669;-86
2023/08/25 09:57:31;;;;;;;1.80;1.70;;;;;;;;;;5013799;28;20226;-85
2023/08/25 09:59:58;;;;;;;2.00;1.80;;;;;;;;;;5010641;28;20223;-86
2023/08/25 10:02:27;;;;;;;3.85;1.80;;;;;;;;;;5013590;28;20227;-87
2023/08/25 10:04:56;;;;;;;1.95;1.83;;;;;;;;;;5014578;28;20204;-86
2023/08/25 10:07:23;;;;;;;1.90;1.60;;;;;;;;;;5013358;28;20231;-87
2023/08/25 10:09:50;;;;;;;2.45;1.75;;;;;;;;;;5017461;28;20214;-88
2023/08/25 10:12:18;;;;;;;1.80;1.67;;;;;;;;;;5020734;28;20223;-87
2023/08/25 10:14:47;;;;;;;2.58;1.90;;;;;;;;;;5014389;28;20294;-87
2023/08/25 10:17:15;;;;;;;3.72;1.90;;;;;;;;;;5004987;28;20235;-86
2023/08/25 10:19:44;;;;;;;1.95;1.70;;;;;;;;;;5021201;28;20249;-86
2023/08/25 10:22:13;;;;;;;2.70;1.83;;;;;;;;;;5021926;28;20306;-85
2023/08/25 10:24:41;;;;;;;1.70;1.48;;;;;;;;;;5013791;28;20207;-86
2023/08/25 10:27:08;;;;;;;2.10;1.88;;;;;;;;;;5012778;28;20659;-86
2023/08/25 10:29:35;;;;;;;1.70;1.60;;;;;;;;;;5021654;28;20199;-86
2023/08/25 10:32:04;;;;;;;2.00;1.80;;;;;;;;;;5021030;28;20735;-86
2023/08/25 10:34:32;;;;;;;2.67;1.50;;;;;;;;;;5019531;28;20203;-87
2023/08/25 10:37:10;;;;;;;1.73;1.63;;;;;;;;;;5014538;28;20930;-86
2023/08/25 10:39:50;;;;;;;1.70;1.60;;;;;;;;;;5008735;28;20262;-87
2023/08/25 10:42:22;;;;;;;2.05;1.50;;;;;;;;;;5005218;28;20657;-86
2023/08/25 10:44:54;;;;;;;4.78;2.63;;;;;;;;;;5013743;28;20212;-86
2023/08/25 10:47:22;;;;;;;2.45;2.25;;;;;;;;;;5005239;28;20582;-88
2023/08/25 10:49:53;;;;;;;1.50;1.40;;;;;;;;;;5013522;28;20214;-86
2023/08/25 10:52:22;;;;;;;1.60;1.50;;;;;;;;;;5005257;28;20237;-87
2023/08/25 10:54:49;;;;;;;1.95;1.60;;;;;;;;;;5013611;28;20215;-87
2023/08/25 10:57:40;;;;;;;2.13;1.55;;;;;;;;;;5004510;28;20410;-86
2023/08/25 11:00:27;;;;;;;3.70;1.88;;;;;;;;;;5013841;28;20237;-86
2023/08/25 11:02:54;;;;;;;1.90;1.70;;;;;;;;;;5015942;28;20290;-86
2023/08/25 11:05:41;;;;;;;2.63;1.85;;;;;;;;;;5012213;28;20242;-87
2023/08/25 11:11:11;;;;;;;2.63;1.73;;;;;;;;;;5092224;27;20571;-85
2023/08/25 11:13:39;;;;;;;2.47;1.58;;;;;;;;;;5068429;28;20208;-87
2023/08/25 11:16:07;;;;;;;3.95;2.30;;;;;;;;;;5059407;28;20699;-87
2023/08/25 11:18:34;;;;;;;1.63;1.52;;;;;;;;;;5060442;28;20209;-86
2023/08/25 11:21:03;;;;;;;1.75;1.65;;;;;;;;;;5067954;28;20229;-85
2023/08/25 11:23:35;;;;;;;3.33;1.88;;;;;;;;;;5068338;28;20233;-87
2023/08/25 11:26:02;;;;;;;1.70;1.60;;;;;;;;;;5074665;28;20240;-88
2023/08/25 11:28:31;;;;;;;2.35;1.60;;;;;;;;;;5074315;28;20210;-86
2023/08/25 11:30:58;;;;;;;2.33;1.85;;;;;;;;;;5078608;28;20236;-87
2023/08/25 11:33:26;;;;;;;4.05;2.40;;;;;;;;;;5081630;28;20258;-86
2023/08/25 11:35:53;;;;;;;1.83;1.73;;;;;;;;;;5079358;28;20293;-83
2023/08/25 11:38:20;;;;;;;3.55;2.40;;;;;;;;;;5068396;28;20737;-86
2023/08/25 11:40:47;;;;;;;2.85;2.13;;;;;;;;;;5067409;28;20229;-88
2023/08/25 11:43:14;;;;;;;3.70;1.85;;;;;;;;;;5079611;28;20803;-88
2023/08/25 11:45:45;;;;;;;2.50;1.83;;;;;;;;;;5081822;28;20264;-87
2023/08/25 11:48:14;;;;;;;3.65;2.30;;;;;;;;;;5077203;28;20483;-87
2023/08/25 11:50:41;;;;;;;1.92;1.83;;;;;;;;;;5076232;28;20868;-85
2023/08/25 11:53:08;;;;;;;3.22;1.90;;;;;;;;;;5090491;28;20231;-87
2023/08/25 11:55:36;;;;;;;3.85;2.20;;;;;;;;;;5067999;28;20265;-83
2023/08/25 11:58:07;;;;;;;1.70;1.60;;;;;;;;;;5081814;28;20216;-89
2023/08/25 12:00:37;;;;;;;1.80;1.67;;;;;;;;;;5081773;28;20234;-86
2023/08/25 12:03:05;;;;;;;4.88;2.38;;;;;;;;;;5081050;28;20206;-85
2023/08/25 12:05:35;;;;;;;1.98;1.80;;;;;;;;;;5078219;28;20758;-84
2023/08/25 12:08:02;;;;;;;2.80;2.10;;;;;;;;;;5078435;28;20213;-87
2023/08/25 12:10:29;;;;;;;2.47;1.92;;;;;;;;;;5077074;28;20233;-86
2023/08/25 12:12:57;;;;;;;3.15;2.60;;;;;;;;;;5068737;28;20209;-85
2023/08/25 12:15:24;;;;;;;2.40;2.20;;;;;;;;;;5079565;28;20229;-87
2023/08/25 12:17:51;;;;;;;2.55;2.13;;;;;;;;;;5080330;28;20212;-86
2023/08/25 12:20:20;;;;;;;2.45;2.15;;;;;;;;;;5080224;28;20205;-87
2023/08/25 12:22:51;;;;;;;2.38;2.17;;;;;;;;;;5062796;28;20198;-87
2023/08/25 12:25:18;;;;;;;2.58;2.03;;;;;;;;;;5062594;28;20221;-85
2023/08/25 12:27:45;;;;;;;2.55;2.30;;;;;;;;;;5054661;28;20202;-84
2023/08/25 12:30:13;;;;;;;7.63;2.70;;;;;;;;;;5063877;28;20222;-85
2023/08/25 12:32:40;;;;;;;2.38;2.15;;;;;;;;;;5074432;28;20714;-87
2023/08/25 12:35:07;;;;;;;2.60;2.28;;;;;;;;;;5076310;28;20255;-87
2023/08/25 12:37:36;;;;;;;2.40;2.20;;;;;;;;;;5063478;28;20202;-87
2023/08/25 12:40:05;;;;;;;2.20;2.00;;;;;;;;;;5071471;28;20668;-87
2023/08/25 12:42:32;;;;;;;2.83;2.40;;;;;;;;;;5078073;28;20212;-89
2023/08/25 12:44:59;;;;;;;2.55;2.15;;;;;;;;;;5077718;28;20579;-89
2023/08/25 12:47:26;;;;;;;2.33;2.03;;;;;;;;;;5072610;28;20232;-86
2023/08/25 12:49:53;;;;;;;4.97;2.40;;;;;;;;;;5068506;28;20245;-89
2023/08/25 12:52:20;;;;;;;5.85;2.72;;;;;;;;;;5066660;28;20222;-86
2023/08/25 12:54:49;;;;;;;3.80;2.40;;;;;;;;;;5065593;28;20202;-89
2023/08/25 12:57:16;;;;;;;4.68;2.55;;;;;;;;;;5054045;28;20237;-88
2023/08/25 12:59:43;;;;;;;2.55;2.35;;;;;;;;;;5068167;28;20660;-88
2023/08/25 13:02:10;;;;;;;2.90;2.22;;;;;;;;;;5059357;28;20602;-88
2023/08/25 13:04:37;;;;;;;3.88;2.85;;;;;;;;;;5062369;28;20675;-86
2023/08/25 13:07:04;;;;;;;3.20;2.42;;;;;;;;;;5057648;28;20276;-87
2023/08/25 13:09:31;;;;;;;3.70;3.17;;;;;;;;;;5062526;28;20229;-87
2023/08/25 13:12:00;;;;;;;7.93;2.75;;;;;;;;;;5074530;28;20593;-87
2023/08/25 13:14:27;;;;;;;3.00;2.70;;;;;;;;;;5069423;28;20217;-87
2023/08/25 13:16:54;;;;;;;3.00;2.35;;;;;;;;;;5069119;28;20609;-90
2023/08/25 13:19:21;;;;;;;5.05;2.97;;;;;;;;;;5056325;28;20684;-88
2023/08/25 13:21:48;;;;;;;3.22;3.03;;;;;;;;;;5054495;28;20225;-89
2023/08/25 13:24:15;;;;;;;2.75;2.33;;;;;;;;;;5065648;28;20213;-87
2023/08/25 13:26:42;;;;;;;2.95;2.67;;;;;;;;;;5061337;28;20227;-86
2023/08/25 13:29:11;;;;;;;4.47;2.90;;;;;;;;;;5065845;28;20206;-89
2023/08/25 13:31:38;;;;;;;5.03;2.80;;;;;;;;;;5070065;28;20293;-91
2023/08/25 13:34:05;;;;;;;5.00;3.17;;;;;;;;;;5064228;28;20221;-87
2023/08/25 13:36:32;;;;;;;3.47;2.92;;;;;;;;;;5057027;28;20234;-89
2023/08/25 13:38:59;;;;;;;3.50;3.05;;;;;;;;;;5068227;28;20205;-91
2023/08/25 13:41:26;;;;;;;4.35;2.78;;;;;;;;;;5059852;28;20229;-90
2023/08/25 13:43:54;;;;;;;2.85;2.60;;;;;;;;;;5058530;28;20216;-88
2023/08/25 13:46:22;;;;;;;3.22;2.72;;;;;;;;;;5064591;28;20318;-88
2023/08/25 13:48:49;;;;;;;3.38;3.00;;;;;;;;;;5064434;28;20209;-85
2023/08/25 13:51:16;;;;;;;4.10;2.78;;;;;;;;;;5063962;28;20241;-90
2023/08/25 13:53:45;;;;;;;3.42;2.72;;;;;;;;;;5060826;28;20209;-86
2023/08/25 13:56:13;;;;;;;7.30;2.90;;;;;;;;;;5057331;28;20241;-91
2023/08/25 13:58:40;;;;;;;3.60;3.30;;;;;;;;;;5068752;28;20206;-88
2023/08/25 14:01:07;;;;;;;5.32;3.38;;;;;;;;;;5067071;28;20241;-89
2023/08/25 14:03:35;;;;;;;4.13;2.60;;;;;;;;;;5072813;28;20194;-87
2023/08/25 14:06:02;;;;;;;6.85;2.83;;;;;;;;;;5063090;28;20364;-85
2023/08/25 14:08:29;;;;;;;2.63;2.40;;;;;;;;;;5056456;28;20679;-88
2023/08/25 14:10:56;;;;;;;4.85;2.90;;;;;;;;;;5063565;28;20718;-87
2023/08/25 14:13:23;;;;;;;3.88;2.70;;;;;;;;;;5053256;28;20672;-95
2023/08/25 14:15:51;;;;;;;2.97;2.70;;;;;;;;;;5059195;28;20233;-88
2023/08/25 14:18:18;;;;;;;6.25;3.05;;;;;;;;;;5054768;28;20198;-90
2023/08/25 14:20:46;;;;;;;5.97;2.83;;;;;;;;;;5066523;28;20240;-90
2023/08/25 14:23:13;;;;;;;2.95;2.65;;;;;;;;;;5063299;28;20204;-95
2023/08/25 14:25:40;;;;;;;3.55;3.00;;;;;;;;;;5059433;28;20259;-89
2023/08/25 14:28:08;;;;;;;3.40;3.00;;;;;;;;;;5069707;28;20214;-91
2023/08/25 14:30:35;;;;;;;2.92;2.72;;;;;;;;;;5068396;28;20241;-89
2023/08/25 14:33:03;;;;;;;4.80;2.88;;;;;;;;;;5069077;28;20205;-92
2023/08/25 14:35:30;;;;;;;4.15;3.65;;;;;;;;;;5065303;28;20233;-90
2023/08/25 14:38:00;;;;;;;4.78;3.00;;;;;;;;;;5073018;28;20259;-90
2023/08/25 14:40:28;;;;;;;3.55;2.95;;;;;;;;;;5067986;28;20234;-91